Bookmark and Share
Track history (hours):
 

City Of Vicksburg

More information available from US FCC via Universal Licensing System and Coast Guard Vessel Documentation Center.

Last reported at 2013-Dec-13 07:23 UTC. Time now 2014-Apr-16 07:35 UTC.
Position N 30°07' W 090°55'.
Warning: this ship's position is months out of date.

Length 320 m.

Type: Towing. MMSI: 366996120.

NotesDate/timePositionNaut miles runAvg speedWind from/ knotsBaromVisibWave heightAir tempDewpointWater temp
2013-Dec-13 07:23N 30°07' W 090°55'5 4.4
2013-Dec-13 06:15N 30°03' W 090°51'5 5.1
2013-Dec-13 05:18N 29°59' W 090°49'12 0.8
2013-Dec-12 14:24N 30°03' W 090°36'0 0.0
2013-Dec-12 13:31N 30°03' W 090°36'0 0.0
2013-Dec-12 12:25N 30°03' W 090°36'0 0.0
2013-Dec-12 11:30N 30°03' W 090°36'0 0.4
2013-Dec-12 10:15N 30°03' W 090°35'0 0.2
2013-Dec-12 07:32N 30°03' W 090°36'0 0.0
2013-Dec-12 06:33N 30°03' W 090°36'0 0.0
2013-Dec-12 05:33N 30°03' W 090°36'0 0.0
2013-Dec-12 04:24N 30°03' W 090°36'0 0.0
2013-Dec-12 01:29N 30°03' W 090°36'0 0.0
2013-Dec-12 00:15N 30°03' W 090°36'0 0.0
2013-Dec-11 22:30N 30°03' W 090°36'0 0.0
2013-Dec-11 21:33N 30°03' W 090°36'0 0.0
2013-Dec-11 20:28N 30°03' W 090°36'0 0.0
2013-Dec-11 18:22N 30°03' W 090°36'0 0.0
2013-Dec-11 14:16N 30°03' W 090°36'0 0.0
2013-Dec-11 12:05N 30°03' W 090°36'0 0.0
2013-Dec-11 11:27N 30°03' W 090°36'0 0.0
2013-Dec-11 10:32N 30°03' W 090°36'0 0.0
2013-Dec-11 09:18N 30°03' W 090°36'0 0.0
2013-Dec-11 08:19N 30°03' W 090°36'0 0.0
2013-Dec-11 06:33N 30°03' W 090°36'1 0.0
2013-Dec-10 02:27N 30°03' W 090°35'0 0.0
2013-Dec-10 01:03N 30°03' W 090°35'  

Dump ship's entire track history

sailing weather and tide predictions

City Of Vicksburg — WDC2660 — position and weather